sensor_id;sensor_type;location;lat;lon;timestamp;temperature;humidity
13436;DHT22;6790;49.520;8.504;2022-09-09T00:02:04;16.20;99.90
13436;DHT22;6790;49.520;8.504;2022-09-09T00:04:39;16.20;99.90
13436;DHT22;6790;49.520;8.504;2022-09-09T00:10:32;16.10;99.90
13436;DHT22;6790;49.520;8.504;2022-09-09T00:15:57;16.00;99.90
13436;DHT22;6790;49.520;8.504;2022-09-09T00:21:12;16.00;99.90
13436;DHT22;6790;49.520;8.504;2022-09-09T00:31:33;16.20;99.90
13436;DHT22;6790;49.520;8.504;2022-09-09T00:34:12;16.20;99.90
13436;DHT22;6790;49.520;8.504;2022-09-09T00:36:41;16.30;99.90
13436;DHT22;6790;49.520;8.504;2022-09-09T00:39:34;16.30;99.90
13436;DHT22;6790;49.520;8.504;2022-09-09T00:42:18;16.30;99.90
13436;DHT22;6790;49.520;8.504;2022-09-09T00:44:52;16.30;99.90
13436;DHT22;6790;49.520;8.504;2022-09-09T00:50:17;16.30;99.90
13436;DHT22;6790;49.520;8.504;2022-09-09T00:58:33;16.20;99.90
13436;DHT22;6790;49.520;8.504;2022-09-09T01:01:12;16.20;99.90
13436;DHT22;6790;49.520;8.504;2022-09-09T01:03:51;16.20;99.90
13436;DHT22;6790;49.520;8.504;2022-09-09T01:06:31;16.20;99.90
13436;DHT22;6790;49.520;8.504;2022-09-09T01:09:13;16.20;99.90
13436;DHT22;6790;49.520;8.504;2022-09-09T01:12:03;16.20;99.90
13436;DHT22;6790;49.520;8.504;2022-09-09T01:17:14;16.10;99.90
13436;DHT22;6790;49.520;8.504;2022-09-09T01:28:13;15.80;99.90
13436;DHT22;6790;49.520;8.504;2022-09-09T01:30:42;15.80;99.90
13436;DHT22;6790;49.520;8.504;2022-09-09T01:33:14;15.80;99.90
13436;DHT22;6790;49.520;8.504;2022-09-09T01:36:05;15.80;99.90
13436;DHT22;6790;49.520;8.504;2022-09-09T01:38:34;15.80;99.90
13436;DHT22;6790;49.520;8.504;2022-09-09T01:41:01;15.70;99.90
13436;DHT22;6790;49.520;8.504;2022-09-09T01:43:28;15.60;99.90
13436;DHT22;6790;49.520;8.504;2022-09-09T01:45:56;15.70;99.90
13436;DHT22;6790;49.520;8.504;2022-09-09T01:48:24;15.70;99.90
13436;DHT22;6790;49.520;8.504;2022-09-09T01:50:51;15.70;99.90
13436;DHT22;6790;49.520;8.504;2022-09-09T01:53:18;15.70;99.90
13436;DHT22;6790;49.520;8.504;2022-09-09T01:56:02;15.60;99.90
13436;DHT22;6790;49.520;8.504;2022-09-09T01:58:59;15.60;99.90
13436;DHT22;6790;49.520;8.504;2022-09-09T02:07:40;15.80;99.90
13436;DHT22;6790;49.520;8.504;2022-09-09T02:10:17;15.70;99.90
13436;DHT22;6790;49.520;8.504;2022-09-09T02:12:59;15.80;99.90
13436;DHT22;6790;49.520;8.504;2022-09-09T02:15:35;15.70;99.90
13436;DHT22;6790;49.520;8.504;2022-09-09T02:18:10;15.60;99.90
13436;DHT22;6790;49.520;8.504;2022-09-09T02:20:38;15.60;99.90
13436;DHT22;6790;49.520;8.504;2022-09-09T02:23:05;15.60;99.90
13436;DHT22;6790;49.520;8.504;2022-09-09T02:25:34;15.50;99.90
13436;DHT22;6790;49.520;8.504;2022-09-09T02:28:03;15.50;99.90
13436;DHT22;6790;49.520;8.504;2022-09-09T02:30:34;15.50;99.90
13436;DHT22;6790;49.520;8.504;2022-09-09T02:33:03;15.60;99.90
13436;DHT22;6790;49.520;8.504;2022-09-09T02:35:32;15.80;99.90
13436;DHT22;6790;49.520;8.504;2022-09-09T02:38:04;15.80;99.90
13436;DHT22;6790;49.520;8.504;2022-09-09T02:40:33;15.90;99.90
13436;DHT22;6790;49.520;8.504;2022-09-09T02:42:59;16.00;99.90
13436;DHT22;6790;49.520;8.504;2022-09-09T02:45:29;16.00;99.90
13436;DHT22;6790;49.520;8.504;2022-09-09T02:50:34;16.00;99.90
13436;DHT22;6790;49.520;8.504;2022-09-09T02:53:38;16.00;99.90
13436;DHT22;6790;49.520;8.504;2022-09-09T02:56:15;15.90;99.90
13436;DHT22;6790;49.520;8.504;2022-09-09T02:58:42;15.80;99.90
13436;DHT22;6790;49.520;8.504;2022-09-09T03:01:08;15.70;99.90
13436;DHT22;6790;49.520;8.504;2022-09-09T03:03:34;15.70;99.90
13436;DHT22;6790;49.520;8.504;2022-09-09T03:06:00;15.60;99.90
13436;DHT22;6790;49.520;8.504;2022-09-09T03:08:26;15.70;99.90
13436;DHT22;6790;49.520;8.504;2022-09-09T03:10:54;15.60;99.90
13436;DHT22;6790;49.520;8.504;2022-09-09T03:13:20;15.60;99.90
13436;DHT22;6790;49.520;8.504;2022-09-09T03:15:47;15.60;99.90
13436;DHT22;6790;49.520;8.504;2022-09-09T03:18:14;15.50;99.90
13436;DHT22;6790;49.520;8.504;2022-09-09T03:20:39;15.50;99.90
13436;DHT22;6790;49.520;8.504;2022-09-09T03:23:07;15.40;99.90
13436;DHT22;6790;49.520;8.504;2022-09-09T03:25:33;15.60;99.90
13436;DHT22;6790;49.520;8.504;2022-09-09T03:27:59;15.60;99.90
13436;DHT22;6790;49.520;8.504;2022-09-09T03:30:26;15.60;99.90
13436;DHT22;6790;49.520;8.504;2022-09-09T03:32:53;15.50;99.90
13436;DHT22;6790;49.520;8.504;2022-09-09T03:35:20;15.50;99.90
13436;DHT22;6790;49.520;8.504;2022-09-09T03:37:46;15.50;99.90
13436;DHT22;6790;49.520;8.504;2022-09-09T03:40:12;15.40;99.90
13436;DHT22;6790;49.520;8.504;2022-09-09T03:42:39;15.50;99.90
13436;DHT22;6790;49.520;8.504;2022-09-09T03:45:07;15.50;99.90
13436;DHT22;6790;49.520;8.504;2022-09-09T03:47:34;15.50;99.90
13436;DHT22;6790;49.520;8.504;2022-09-09T03:50:00;15.50;99.90
13436;DHT22;6790;49.520;8.504;2022-09-09T03:52:26;15.30;99.90
13436;DHT22;6790;49.520;8.504;2022-09-09T03:54:53;15.40;99.90
13436;DHT22;6790;49.520;8.504;2022-09-09T03:57:20;15.50;99.90
13436;DHT22;6790;49.520;8.504;2022-09-09T03:59:46;15.40;99.90
13436;DHT22;6790;49.520;8.504;2022-09-09T04:02:12;15.30;99.90
13436;DHT22;6790;49.520;8.504;2022-09-09T04:04:38;15.30;99.90
13436;DHT22;6790;49.520;8.504;2022-09-09T04:07:04;15.30;99.90
13436;DHT22;6790;49.520;8.504;2022-09-09T04:09:32;15.20;99.90
13436;DHT22;6790;49.520;8.504;2022-09-09T04:11:58;15.30;99.90
13436;DHT22;6790;49.520;8.504;2022-09-09T04:14:23;15.30;99.90
13436;DHT22;6790;49.520;8.504;2022-09-09T04:16:54;15.30;99.90
13436;DHT22;6790;49.520;8.504;2022-09-09T04:19:21;15.40;99.90
13436;DHT22;6790;49.520;8.504;2022-09-09T04:21:47;15.40;99.90
13436;DHT22;6790;49.520;8.504;2022-09-09T04:24:15;15.30;99.90
13436;DHT22;6790;49.520;8.504;2022-09-09T04:26:41;15.40;99.90
13436;DHT22;6790;49.520;8.504;2022-09-09T04:29:07;15.40;99.90
13436;DHT22;6790;49.520;8.504;2022-09-09T04:31:33;15.40;99.90
13436;DHT22;6790;49.520;8.504;2022-09-09T04:33:59;15.40;99.90
13436;DHT22;6790;49.520;8.504;2022-09-09T04:36:31;15.40;99.90
13436;DHT22;6790;49.520;8.504;2022-09-09T04:38:57;15.40;99.90
13436;DHT22;6790;49.520;8.504;2022-09-09T04:41:23;15.40;99.90
13436;DHT22;6790;49.520;8.504;2022-09-09T04:43:49;15.50;99.90
13436;DHT22;6790;49.520;8.504;2022-09-09T04:46:15;15.60;99.90
13436;DHT22;6790;49.520;8.504;2022-09-09T04:48:44;15.60;99.90
13436;DHT22;6790;49.520;8.504;2022-09-09T04:51:12;15.60;99.90
13436;DHT22;6790;49.520;8.504;2022-09-09T04:53:39;15.60;99.90
13436;DHT22;6790;49.520;8.504;2022-09-09T04:56:06;15.60;99.90
13436;DHT22;6790;49.520;8.504;2022-09-09T04:58:35;15.70;99.90
13436;DHT22;6790;49.520;8.504;2022-09-09T05:01:09;15.70;99.90
13436;DHT22;6790;49.520;8.504;2022-09-09T05:03:36;15.70;99.90
13436;DHT22;6790;49.520;8.504;2022-09-09T05:06:08;15.80;99.90
13436;DHT22;6790;49.520;8.504;2022-09-09T05:08:37;15.80;99.90
13436;DHT22;6790;49.520;8.504;2022-09-09T05:11:04;15.70;99.90
13436;DHT22;6790;49.520;8.504;2022-09-09T05:13:49;15.80;99.90
13436;DHT22;6790;49.520;8.504;2022-09-09T05:16:16;15.80;99.90
13436;DHT22;6790;49.520;8.504;2022-09-09T05:18:43;15.80;99.90
13436;DHT22;6790;49.520;8.504;2022-09-09T05:21:10;15.80;99.90
13436;DHT22;6790;49.520;8.504;2022-09-09T05:23:37;15.90;99.90
13436;DHT22;6790;49.520;8.504;2022-09-09T05:26:03;15.80;99.90
13436;DHT22;6790;49.520;8.504;2022-09-09T05:28:30;15.80;99.90
13436;DHT22;6790;49.520;8.504;2022-09-09T05:31:07;15.90;99.90
13436;DHT22;6790;49.520;8.504;2022-09-09T05:33:34;15.90;99.90
13436;DHT22;6790;49.520;8.504;2022-09-09T05:36:07;16.00;99.90
13436;DHT22;6790;49.520;8.504;2022-09-09T05:38:34;16.00;99.90
13436;DHT22;6790;49.520;8.504;2022-09-09T05:41:01;16.00;99.90
13436;DHT22;6790;49.520;8.504;2022-09-09T05:43:28;16.10;99.90
13436;DHT22;6790;49.520;8.504;2022-09-09T05:46:06;16.10;99.90
13436;DHT22;6790;49.520;8.504;2022-09-09T05:48:38;16.10;99.90
13436;DHT22;6790;49.520;8.504;2022-09-09T05:51:13;16.10;99.90
13436;DHT22;6790;49.520;8.504;2022-09-09T05:53:44;16.10;99.90
13436;DHT22;6790;49.520;8.504;2022-09-09T05:56:13;16.10;99.90
13436;DHT22;6790;49.520;8.504;2022-09-09T05:58:57;16.20;99.90
13436;DHT22;6790;49.520;8.504;2022-09-09T06:01:27;16.20;99.90
13436;DHT22;6790;49.520;8.504;2022-09-09T06:03:55;16.20;99.90
13436;DHT22;6790;49.520;8.504;2022-09-09T06:06:23;16.20;99.90
13436;DHT22;6790;49.520;8.504;2022-09-09T06:08:52;16.30;99.90
13436;DHT22;6790;49.520;8.504;2022-09-09T06:11:25;16.30;99.90
13436;DHT22;6790;49.520;8.504;2022-09-09T06:13:52;16.40;99.90
13436;DHT22;6790;49.520;8.504;2022-09-09T06:16:22;16.40;99.90
13436;DHT22;6790;49.520;8.504;2022-09-09T06:18:50;16.30;99.90
13436;DHT22;6790;49.520;8.504;2022-09-09T06:21:20;16.30;99.90
13436;DHT22;6790;49.520;8.504;2022-09-09T06:23:48;16.30;99.90
13436;DHT22;6790;49.520;8.504;2022-09-09T06:26:19;16.30;99.90
13436;DHT22;6790;49.520;8.504;2022-09-09T06:28:48;16.20;99.90
13436;DHT22;6790;49.520;8.504;2022-09-09T06:31:17;16.30;99.90
13436;DHT22;6790;49.520;8.504;2022-09-09T06:33:47;16.50;99.90
13436;DHT22;6790;49.520;8.504;2022-09-09T06:36:16;16.60;99.90
13436;DHT22;6790;49.520;8.504;2022-09-09T06:38:44;16.60;99.90
13436;DHT22;6790;49.520;8.504;2022-09-09T06:41:12;16.70;99.90
13436;DHT22;6790;49.520;8.504;2022-09-09T06:43:39;16.90;99.90
13436;DHT22;6790;49.520;8.504;2022-09-09T06:46:08;16.90;99.90
13436;DHT22;6790;49.520;8.504;2022-09-09T06:48:35;17.00;99.90
13436;DHT22;6790;49.520;8.504;2022-09-09T06:51:08;17.00;99.90
13436;DHT22;6790;49.520;8.504;2022-09-09T06:53:37;17.10;99.90
13436;DHT22;6790;49.520;8.504;2022-09-09T06:58:36;17.30;99.90
13436;DHT22;6790;49.520;8.504;2022-09-09T07:01:04;17.40;99.90
13436;DHT22;6790;49.520;8.504;2022-09-09T07:03:30;17.50;99.90
13436;DHT22;6790;49.520;8.504;2022-09-09T07:05:57;17.40;99.90
13436;DHT22;6790;49.520;8.504;2022-09-09T07:08:23;17.50;99.90
13436;DHT22;6790;49.520;8.504;2022-09-09T07:10:50;17.50;99.90
13436;DHT22;6790;49.520;8.504;2022-09-09T07:13:23;17.50;99.90
13436;DHT22;6790;49.520;8.504;2022-09-09T07:15:51;17.60;99.90
13436;DHT22;6790;49.520;8.504;2022-09-09T07:18:17;17.70;99.90
13436;DHT22;6790;49.520;8.504;2022-09-09T07:20:53;17.70;99.90
13436;DHT22;6790;49.520;8.504;2022-09-09T07:23:20;17.80;99.90
13436;DHT22;6790;49.520;8.504;2022-09-09T07:25:46;17.80;99.90
13436;DHT22;6790;49.520;8.504;2022-09-09T07:28:13;18.00;99.90
13436;DHT22;6790;49.520;8.504;2022-09-09T07:30:39;18.00;99.90
13436;DHT22;6790;49.520;8.504;2022-09-09T07:33:05;18.00;99.90
13436;DHT22;6790;49.520;8.504;2022-09-09T07:35:31;18.00;99.90
13436;DHT22;6790;49.520;8.504;2022-09-09T07:37:57;17.80;99.90
13436;DHT22;6790;49.520;8.504;2022-09-09T07:40:24;17.80;99.90
13436;DHT22;6790;49.520;8.504;2022-09-09T07:42:50;17.90;99.90
13436;DHT22;6790;49.520;8.504;2022-09-09T07:45:15;17.90;99.90
13436;DHT22;6790;49.520;8.504;2022-09-09T07:47:41;18.00;99.90
13436;DHT22;6790;49.520;8.504;2022-09-09T07:50:09;18.10;99.90
13436;DHT22;6790;49.520;8.504;2022-09-09T07:52:35;18.10;99.90
13436;DHT22;6790;49.520;8.504;2022-09-09T07:55:01;18.20;99.90
13436;DHT22;6790;49.520;8.504;2022-09-09T07:57:31;18.30;99.90
13436;DHT22;6790;49.520;8.504;2022-09-09T07:59:56;18.50;99.90
13436;DHT22;6790;49.520;8.504;2022-09-09T08:02:23;18.60;99.90
13436;DHT22;6790;49.520;8.504;2022-09-09T08:04:50;18.50;99.90
13436;DHT22;6790;49.520;8.504;2022-09-09T08:07:17;18.50;99.90
13436;DHT22;6790;49.520;8.504;2022-09-09T08:09:43;18.50;99.90
13436;DHT22;6790;49.520;8.504;2022-09-09T08:12:09;18.50;99.90
13436;DHT22;6790;49.520;8.504;2022-09-09T08:14:38;18.50;99.90
13436;DHT22;6790;49.520;8.504;2022-09-09T08:17:05;18.50;99.90
13436;DHT22;6790;49.520;8.504;2022-09-09T08:19:31;18.30;99.90
13436;DHT22;6790;49.520;8.504;2022-09-09T08:21:59;18.20;99.90
13436;DHT22;6790;49.520;8.504;2022-09-09T08:24:27;18.00;99.90
13436;DHT22;6790;49.520;8.504;2022-09-09T08:26:52;17.80;99.90
13436;DHT22;6790;49.520;8.504;2022-09-09T08:29:19;17.70;99.90
13436;DHT22;6790;49.520;8.504;2022-09-09T08:31:50;17.70;99.90
13436;DHT22;6790;49.520;8.504;2022-09-09T08:34:20;17.60;99.90
13436;DHT22;6790;49.520;8.504;2022-09-09T08:36:47;17.60;99.90
13436;DHT22;6790;49.520;8.504;2022-09-09T08:39:16;17.80;99.90
13436;DHT22;6790;49.520;8.504;2022-09-09T08:50:37;18.40;99.90
13436;DHT22;6790;49.520;8.504;2022-09-09T08:53:28;18.50;99.90
13436;DHT22;6790;49.520;8.504;2022-09-09T08:55:57;18.70;99.90
13436;DHT22;6790;49.520;8.504;2022-09-09T08:58:27;18.80;99.90
13436;DHT22;6790;49.520;8.504;2022-09-09T09:07:13;18.70;99.90
13436;DHT22;6790;49.520;8.504;2022-09-09T09:10:11;18.80;99.90
13436;DHT22;6790;49.520;8.504;2022-09-09T09:12:45;18.70;99.90
13436;DHT22;6790;49.520;8.504;2022-09-09T09:15:26;18.80;99.90
13436;DHT22;6790;49.520;8.504;2022-09-09T09:17:56;19.50;99.90
13436;DHT22;6790;49.520;8.504;2022-09-09T09:20:50;20.20;99.90
13436;DHT22;6790;49.520;8.504;2022-09-09T09:23:45;20.40;99.90
13436;DHT22;6790;49.520;8.504;2022-09-09T09:26:31;20.70;99.90
13436;DHT22;6790;49.520;8.504;2022-09-09T09:29:00;20.40;99.90
13436;DHT22;6790;49.520;8.504;2022-09-09T09:31:29;19.90;99.90
13436;DHT22;6790;49.520;8.504;2022-09-09T09:33:56;19.70;99.90
13436;DHT22;6790;49.520;8.504;2022-09-09T09:36:42;19.50;99.90
13436;DHT22;6790;49.520;8.504;2022-09-09T09:39:23;19.50;99.90
13436;DHT22;6790;49.520;8.504;2022-09-09T09:41:53;19.50;99.90
13436;DHT22;6790;49.520;8.504;2022-09-09T09:44:25;19.40;99.90
13436;DHT22;6790;49.520;8.504;2022-09-09T09:47:05;19.50;99.90
13436;DHT22;6790;49.520;8.504;2022-09-09T09:49:32;19.50;99.90
13436;DHT22;6790;49.520;8.504;2022-09-09T09:52:02;19.90;99.90
13436;DHT22;6790;49.520;8.504;2022-09-09T09:54:31;19.70;99.90
13436;DHT22;6790;49.520;8.504;2022-09-09T09:57:14;19.30;99.90
13436;DHT22;6790;49.520;8.504;2022-09-09T09:59:41;19.10;99.90
13436;DHT22;6790;49.520;8.504;2022-09-09T10:02:22;18.90;99.90
13436;DHT22;6790;49.520;8.504;2022-09-09T10:05:27;18.80;99.90
13436;DHT22;6790;49.520;8.504;2022-09-09T10:08:05;18.70;99.90
13436;DHT22;6790;49.520;8.504;2022-09-09T10:19:31;17.90;99.90
13436;DHT22;6790;49.520;8.504;2022-09-09T10:33:49;18.90;99.90
13436;DHT22;6790;49.520;8.504;2022-09-09T10:36:21;19.40;99.90
13436;DHT22;6790;49.520;8.504;2022-09-09T10:42:05;20.20;99.90
13436;DHT22;6790;49.520;8.504;2022-09-09T10:45:06;20.40;99.90
13436;DHT22;6790;49.520;8.504;2022-09-09T10:50:15;20.60;99.90
13436;DHT22;6790;49.520;8.504;2022-09-09T10:53:22;20.60;99.90
13436;DHT22;6790;49.520;8.504;2022-09-09T10:56:01;20.70;99.90
13436;DHT22;6790;49.520;8.504;2022-09-09T10:58:48;21.10;99.90
13436;DHT22;6790;49.520;8.504;2022-09-09T11:01:27;21.40;99.90
13436;DHT22;6790;49.520;8.504;2022-09-09T11:04:01;21.60;99.90
13436;DHT22;6790;49.520;8.504;2022-09-09T11:06:37;21.90;99.90
13436;DHT22;6790;49.520;8.504;2022-09-09T11:09:05;21.90;99.90
13436;DHT22;6790;49.520;8.504;2022-09-09T11:11:39;21.80;99.90
13436;DHT22;6790;49.520;8.504;2022-09-09T11:17:52;21.70;99.90
13436;DHT22;6790;49.520;8.504;2022-09-09T11:20:20;21.90;99.90
13436;DHT22;6790;49.520;8.504;2022-09-09T11:23:13;22.20;99.90
13436;DHT22;6790;49.520;8.504;2022-09-09T11:25:47;22.30;99.90
13436;DHT22;6790;49.520;8.504;2022-09-09T11:31:44;21.10;99.90
13436;DHT22;6790;49.520;8.504;2022-09-09T11:40:32;21.10;99.90
13436;DHT22;6790;49.520;8.504;2022-09-09T11:45:33;20.70;99.90
13436;DHT22;6790;49.520;8.504;2022-09-09T11:48:02;20.90;99.90
13436;DHT22;6790;49.520;8.504;2022-09-09T11:50:34;20.70;99.90
13436;DHT22;6790;49.520;8.504;2022-09-09T11:55:46;20.70;99.90
13436;DHT22;6790;49.520;8.504;2022-09-09T12:00:43;20.70;99.90
13436;DHT22;6790;49.520;8.504;2022-09-09T12:06:25;20.70;99.90
13436;DHT22;6790;49.520;8.504;2022-09-09T12:11:43;20.60;99.90
13436;DHT22;6790;49.520;8.504;2022-09-09T12:14:20;20.50;99.90
13436;DHT22;6790;49.520;8.504;2022-09-09T12:16:46;20.20;99.90
13436;DHT22;6790;49.520;8.504;2022-09-09T12:19:18;20.30;99.90
13436;DHT22;6790;49.520;8.504;2022-09-09T12:24:37;20.20;99.90
13436;DHT22;6790;49.520;8.504;2022-09-09T12:27:13;18.70;99.90
13436;DHT22;6790;49.520;8.504;2022-09-09T12:29:53;17.10;99.90
13436;DHT22;6790;49.520;8.504;2022-09-09T12:32:35;16.50;99.90
13436;DHT22;6790;49.520;8.504;2022-09-09T12:37:51;16.20;99.90
13436;DHT22;6790;49.520;8.504;2022-09-09T12:40:29;16.20;99.90
13436;DHT22;6790;49.520;8.504;2022-09-09T12:42:58;16.40;99.90
13436;DHT22;6790;49.520;8.504;2022-09-09T12:45:29;16.30;99.90
13436;DHT22;6790;49.520;8.504;2022-09-09T12:48:06;16.30;99.90
13436;DHT22;6790;49.520;8.504;2022-09-09T12:51:00;16.50;99.90
13436;DHT22;6790;49.520;8.504;2022-09-09T12:53:34;16.80;99.90
13436;DHT22;6790;49.520;8.504;2022-09-09T12:56:08;16.80;99.90
13436;DHT22;6790;49.520;8.504;2022-09-09T12:58:45;16.80;99.90
13436;DHT22;6790;49.520;8.504;2022-09-09T13:01:39;16.80;99.90
13436;DHT22;6790;49.520;8.504;2022-09-09T13:04:19;16.90;99.90
13436;DHT22;6790;49.520;8.504;2022-09-09T13:06:47;16.80;99.90
13436;DHT22;6790;49.520;8.504;2022-09-09T13:09:13;16.60;99.90
13436;DHT22;6790;49.520;8.504;2022-09-09T13:11:44;16.50;99.90
13436;DHT22;6790;49.520;8.504;2022-09-09T13:14:31;16.20;99.90
13436;DHT22;6790;49.520;8.504;2022-09-09T13:17:19;15.80;99.90
13436;DHT22;6790;49.520;8.504;2022-09-09T13:19:48;15.70;99.90
13436;DHT22;6790;49.520;8.504;2022-09-09T13:25:18;15.70;99.90
13436;DHT22;6790;49.520;8.504;2022-09-09T13:27:54;15.90;99.90
13436;DHT22;6790;49.520;8.504;2022-09-09T13:35:55;16.30;99.90
13436;DHT22;6790;49.520;8.504;2022-09-09T13:38:26;16.50;99.90
13436;DHT22;6790;49.520;8.504;2022-09-09T13:40:58;16.90;99.90
13436;DHT22;6790;49.520;8.504;2022-09-09T13:43:51;16.60;99.90
13436;DHT22;6790;49.520;8.504;2022-09-09T13:46:39;16.50;99.90
13436;DHT22;6790;49.520;8.504;2022-09-09T13:52:02;16.80;99.90
13436;DHT22;6790;49.520;8.504;2022-09-09T13:54:30;17.10;99.90
13436;DHT22;6790;49.520;8.504;2022-09-09T13:56:56;17.40;99.90
13436;DHT22;6790;49.520;8.504;2022-09-09T13:59:22;17.70;99.90
13436;DHT22;6790;49.520;8.504;2022-09-09T14:01:49;17.90;99.90
13436;DHT22;6790;49.520;8.504;2022-09-09T14:04:18;18.00;99.90
13436;DHT22;6790;49.520;8.504;2022-09-09T14:06:46;18.10;99.90
13436;DHT22;6790;49.520;8.504;2022-09-09T14:09:15;18.30;99.90
13436;DHT22;6790;49.520;8.504;2022-09-09T14:11:42;18.30;99.90
13436;DHT22;6790;49.520;8.504;2022-09-09T14:14:09;18.30;99.90
13436;DHT22;6790;49.520;8.504;2022-09-09T14:16:35;18.40;99.90
13436;DHT22;6790;49.520;8.504;2022-09-09T14:19:01;18.50;99.90
13436;DHT22;6790;49.520;8.504;2022-09-09T14:21:27;18.50;99.90
13436;DHT22;6790;49.520;8.504;2022-09-09T14:23:53;18.50;99.90
13436;DHT22;6790;49.520;8.504;2022-09-09T14:26:23;18.50;99.90
13436;DHT22;6790;49.520;8.504;2022-09-09T14:28:49;18.70;99.90
13436;DHT22;6790;49.520;8.504;2022-09-09T14:31:15;18.30;99.90
13436;DHT22;6790;49.520;8.504;2022-09-09T14:33:43;18.20;99.90
13436;DHT22;6790;49.520;8.504;2022-09-09T14:36:09;18.30;99.90
13436;DHT22;6790;49.520;8.504;2022-09-09T14:38:37;18.40;99.90
13436;DHT22;6790;49.520;8.504;2022-09-09T14:41:10;18.40;99.90
13436;DHT22;6790;49.520;8.504;2022-09-09T14:43:42;18.50;99.90
13436;DHT22;6790;49.520;8.504;2022-09-09T14:46:10;18.40;99.90
13436;DHT22;6790;49.520;8.504;2022-09-09T14:48:37;18.20;99.90
13436;DHT22;6790;49.520;8.504;2022-09-09T14:51:07;18.00;99.90
13436;DHT22;6790;49.520;8.504;2022-09-09T14:53:39;17.80;99.90
13436;DHT22;6790;49.520;8.504;2022-09-09T14:56:07;17.70;99.90
13436;DHT22;6790;49.520;8.504;2022-09-09T14:58:37;17.70;99.90
13436;DHT22;6790;49.520;8.504;2022-09-09T15:01:10;17.50;99.90
13436;DHT22;6790;49.520;8.504;2022-09-09T15:03:39;17.50;99.90
13436;DHT22;6790;49.520;8.504;2022-09-09T15:06:11;17.50;99.90
13436;DHT22;6790;49.520;8.504;2022-09-09T15:08:39;17.30;99.90
13436;DHT22;6790;49.520;8.504;2022-09-09T15:11:06;17.30;99.90
13436;DHT22;6790;49.520;8.504;2022-09-09T15:13:33;17.20;99.90
13436;DHT22;6790;49.520;8.504;2022-09-09T15:16:13;17.30;99.90
13436;DHT22;6790;49.520;8.504;2022-09-09T15:18:40;17.30;99.90
13436;DHT22;6790;49.520;8.504;2022-09-09T15:21:21;17.30;99.90
13436;DHT22;6790;49.520;8.504;2022-09-09T15:23:48;17.10;99.90
13436;DHT22;6790;49.520;8.504;2022-09-09T15:26:15;16.70;99.90
13436;DHT22;6790;49.520;8.504;2022-09-09T15:28:42;16.40;99.90
13436;DHT22;6790;49.520;8.504;2022-09-09T15:31:20;16.30;99.90
13436;DHT22;6790;49.520;8.504;2022-09-09T15:33:51;16.10;99.90
13436;DHT22;6790;49.520;8.504;2022-09-09T15:36:21;16.00;99.90
13436;DHT22;6790;49.520;8.504;2022-09-09T15:38:50;15.90;99.90
13436;DHT22;6790;49.520;8.504;2022-09-09T15:41:18;15.90;99.90
13436;DHT22;6790;49.520;8.504;2022-09-09T15:43:45;15.90;99.90
13436;DHT22;6790;49.520;8.504;2022-09-09T15:46:24;15.80;99.90
13436;DHT22;6790;49.520;8.504;2022-09-09T15:48:51;15.80;99.90
13436;DHT22;6790;49.520;8.504;2022-09-09T15:51:17;15.80;99.90
13436;DHT22;6790;49.520;8.504;2022-09-09T15:53:44;15.70;99.90
13436;DHT22;6790;49.520;8.504;2022-09-09T15:56:10;15.80;99.90
13436;DHT22;6790;49.520;8.504;2022-09-09T15:58:36;16.00;99.90
13436;DHT22;6790;49.520;8.504;2022-09-09T16:01:07;16.20;99.90
13436;DHT22;6790;49.520;8.504;2022-09-09T16:03:38;16.40;99.90
13436;DHT22;6790;49.520;8.504;2022-09-09T16:06:13;16.40;99.90
13436;DHT22;6790;49.520;8.504;2022-09-09T16:08:41;16.50;99.90
13436;DHT22;6790;49.520;8.504;2022-09-09T16:11:13;16.60;99.90
13436;DHT22;6790;49.520;8.504;2022-09-09T16:13:42;16.70;99.90
13436;DHT22;6790;49.520;8.504;2022-09-09T16:16:10;16.80;99.90
13436;DHT22;6790;49.520;8.504;2022-09-09T16:18:48;16.70;99.90
13436;DHT22;6790;49.520;8.504;2022-09-09T16:23:50;16.70;99.90
13436;DHT22;6790;49.520;8.504;2022-09-09T16:26:19;16.60;99.90
13436;DHT22;6790;49.520;8.504;2022-09-09T16:28:45;16.70;99.90
13436;DHT22;6790;49.520;8.504;2022-09-09T16:31:20;16.60;99.90
13436;DHT22;6790;49.520;8.504;2022-09-09T16:33:48;16.50;99.90
13436;DHT22;6790;49.520;8.504;2022-09-09T16:36:23;16.40;99.90
13436;DHT22;6790;49.520;8.504;2022-09-09T16:38:58;16.30;99.90
13436;DHT22;6790;49.520;8.504;2022-09-09T16:41:26;16.30;99.90
13436;DHT22;6790;49.520;8.504;2022-09-09T16:43:54;16.10;99.90
13436;DHT22;6790;49.520;8.504;2022-09-09T16:46:22;16.10;99.90
13436;DHT22;6790;49.520;8.504;2022-09-09T16:48:49;16.20;99.90
13436;DHT22;6790;49.520;8.504;2022-09-09T16:51:27;16.00;99.90
13436;DHT22;6790;49.520;8.504;2022-09-09T16:53:55;16.10;99.90
13436;DHT22;6790;49.520;8.504;2022-09-09T16:56:25;16.00;99.90
13436;DHT22;6790;49.520;8.504;2022-09-09T16:58:54;16.00;99.90
13436;DHT22;6790;49.520;8.504;2022-09-09T17:01:26;16.00;99.90
13436;DHT22;6790;49.520;8.504;2022-09-09T17:03:58;16.00;99.90
13436;DHT22;6790;49.520;8.504;2022-09-09T17:06:27;16.00;99.90
13436;DHT22;6790;49.520;8.504;2022-09-09T17:08:58;16.00;99.90
13436;DHT22;6790;49.520;8.504;2022-09-09T17:11:25;16.00;99.90
13436;DHT22;6790;49.520;8.504;2022-09-09T17:13:52;16.00;99.90
13436;DHT22;6790;49.520;8.504;2022-09-09T17:16:20;16.00;99.90
13436;DHT22;6790;49.520;8.504;2022-09-09T17:18:50;15.90;99.90
13436;DHT22;6790;49.520;8.504;2022-09-09T17:21:20;15.90;99.90
13436;DHT22;6790;49.520;8.504;2022-09-09T17:23:47;15.80;99.90
13436;DHT22;6790;49.520;8.504;2022-09-09T17:26:16;15.80;99.90
13436;DHT22;6790;49.520;8.504;2022-09-09T17:28:44;15.70;99.90
13436;DHT22;6790;49.520;8.504;2022-09-09T17:31:12;15.70;99.90
13436;DHT22;6790;49.520;8.504;2022-09-09T17:33:41;15.70;99.90
13436;DHT22;6790;49.520;8.504;2022-09-09T17:36:10;15.60;99.90
13436;DHT22;6790;49.520;8.504;2022-09-09T17:38:38;15.50;99.90
13436;DHT22;6790;49.520;8.504;2022-09-09T17:41:10;15.50;99.90
13436;DHT22;6790;49.520;8.504;2022-09-09T17:43:38;15.50;99.90
13436;DHT22;6790;49.520;8.504;2022-09-09T17:46:11;15.50;99.90
13436;DHT22;6790;49.520;8.504;2022-09-09T17:48:37;15.60;99.90
13436;DHT22;6790;49.520;8.504;2022-09-09T17:51:05;15.60;99.90
13436;DHT22;6790;49.520;8.504;2022-09-09T17:53:41;15.70;99.90
13436;DHT22;6790;49.520;8.504;2022-09-09T17:56:12;15.70;99.90
13436;DHT22;6790;49.520;8.504;2022-09-09T17:58:39;15.80;99.90
13436;DHT22;6790;49.520;8.504;2022-09-09T18:01:11;15.80;99.90
13436;DHT22;6790;49.520;8.504;2022-09-09T18:03:40;15.80;99.90
13436;DHT22;6790;49.520;8.504;2022-09-09T18:06:12;15.60;99.90
13436;DHT22;6790;49.520;8.504;2022-09-09T18:08:41;15.70;99.90
13436;DHT22;6790;49.520;8.504;2022-09-09T18:11:08;15.60;99.90
13436;DHT22;6790;49.520;8.504;2022-09-09T18:13:34;15.40;99.90
13436;DHT22;6790;49.520;8.504;2022-09-09T18:16:00;15.30;99.90
13436;DHT22;6790;49.520;8.504;2022-09-09T18:18:27;15.20;99.90
13436;DHT22;6790;49.520;8.504;2022-09-09T18:21:02;15.10;99.90
13436;DHT22;6790;49.520;8.504;2022-09-09T18:23:40;15.30;99.90
13436;DHT22;6790;49.520;8.504;2022-09-09T18:26:08;15.00;99.90